Latest Weather Observations for Dennes Point

IDT60901

Issued at 11:41 pm EST Tuesday 23 July 2019 (issued every 10 minutes, with the page automatically refreshed every 10 minutes)

About weather observations | Map of Hobart area stations | Latest observations for Hobart area | Other Formats
Station Details ID: 094255 Name: DENNES POINT Lat: -43.06 Lon: 147.36 Height: 5.67 m
Data from the previous 72 hours. | See also: Recent months at Dennes Point
Date/Time
EST
Temp
°C
App
Temp
°C
Dew
Point
°C
Rel
Hum
%
Delta-T
°C
Wind Press
QNH
hPa
Press
MSL
hPa
Rain since
9am
mm
Dir  Spd
km/h
Gust
km/h
Spd
kts
Gust
kts
23/11:30pm 7.6 3.7 1.0 63 2.7 WNW 11 19 6 10 1004.6 1004.6 0.0
23/11:00pm 8.0 4.5 1.0 61 2.8 WSW 9 17 5 9 1003.9 1003.9 0.0
23/10:30pm 6.8 4.2 0.7 65 2.4 WSW 4 6 2 3 1003.5 1003.5 0.0
23/10:00pm 8.0 5.7 0.3 58 3.1 S 2 7 1 4 1003.4 1003.4 0.0
23/09:30pm 8.0 5.7 0.7 60 2.9 NW 2 4 1 2 1003.1 1003.1 0.0
23/09:00pm 8.8 5.9 1.2 59 3.1 NW 6 7 3 4 1002.9 1002.9 0.0
23/08:30pm 8.7 5.6 1.1 59 3.1 NNW 7 13 4 7 1002.8 1002.8 0.0
23/08:00pm 8.2 5.2 1.1 61 2.9 NW 6 13 3 7 1002.4 1002.4 0.0
23/07:30pm 8.8 5.4 1.7 61 2.9 NW 9 19 5 10 1002.3 1002.3 0.0
23/07:00pm 8.8 4.1 1.2 59 3.1 NW 15 22 8 12 1002.1 1002.1 0.0
23/06:30pm 8.9 3.5 1.3 59 3.1 NW 19 28 10 15 1001.6 1001.7 0.0
23/06:00pm 8.7 4.1 1.4 60 3.0 WNW 15 19 8 10 1001.3 1001.4 0.0
23/05:30pm 9.0 4.7 1.2 58 3.2 NW 13 22 7 12 1001.1 1001.2 0.0
23/05:00pm 9.1 5.3 1.8 60 3.1 NW 11 22 6 12 1000.8 1000.9 0.0
23/04:30pm 9.4 6.4 1.8 59 3.2 WNW 7 13 4 7 1000.5 1000.6 0.0
23/04:00pm 10.3 4.2 2.9 60 3.2 W 24 32 13 17 1000.3 1000.4 0.0
23/03:30pm 11.0 4.8 2.1 54 3.8 W 24 37 13 20 999.8 999.9 0.0
23/03:00pm 11.3 4.6 3.6 59 3.4 W 28 35 15 19 999.0 999.1 0.0
23/02:30pm 11.7 5.2 2.7 54 3.9 W 26 41 14 22 999.0 999.1 0.0
23/02:00pm 11.8 6.6 3.6 57 3.7 NW 20 33 11 18 998.5 998.6 0.0
23/01:30pm 11.3 7.0 3.1 57 3.6 NW 15 24 8 13 998.6 998.7 0.0
23/01:00pm 11.0 6.3 3.1 58 3.5 NNW 17 30 9 16 998.7 998.8 0.0
23/12:30pm 11.6 9.0 3.4 57 3.6 NW 6 15 3 8 998.6 998.7 0.0
23/12:00pm 10.6 5.9 3.4 61 3.2 WNW 17 28 9 15 999.1 999.2 0.0
23/11:30am 10.1 4.8 4.9 70 2.3 N 22 26 12 14 999.7 999.8 0.0
23/11:00am 10.1 5.2 5.1 71 2.3 N 20 22 11 12 999.9 1000.0 0.0
23/10:30am 10.1 6.0 4.5 68 2.5 N 15 20 8 11 999.9 1000.0 0.0
23/10:00am 10.1 6.1 5.1 71 2.3 N 15 19 8 10 1000.1 1000.2 0.0
23/09:30am 9.8 5.4 4.8 71 2.2 NNE 17 24 9 13 1000.3 1000.4 0.0
23/09:00am 10.0 5.3 5.0 71 2.3 NNE 19 24 10 13 1000.3 1000.4 0.0
23/08:30am 9.9 5.5 4.5 69 2.4 NNE 17 22 9 12 1000.1 1000.2 0.0
23/08:00am 10.3 7.5 2.9 60 3.2 NNW 7 13 4 7 1000.2 1000.3 0.0
23/07:30am 10.1 6.7 4.0 66 2.7 W 11 13 6 7 999.9 1000.0 0.0
23/07:00am 10.9 7.9 4.1 63 3.0 N 9 15 5 8 999.9 1000.0 0.0
23/06:30am 10.9 7.7 3.2 59 3.4 NW 9 17 5 9 1000.5 1000.6 0.0
23/06:00am 10.9 6.5 2.7 57 3.6 W 15 22 8 12 1000.5 1000.6 0.0
23/05:30am 11.3 5.6 2.9 56 3.7 WNW 22 33 12 18 1000.1 1000.2 0.0
23/05:00am 11.4 3.2 2.9 56 3.7 WNW 35 46 19 25 999.6 999.7 0.0
23/04:30am 11.4 4.2 3.2 57 3.6 WNW 30 43 16 23 999.7 999.8 0.0
23/04:00am 11.9 5.7 2.4 52 4.1 NW 24 35 13 19 999.5 999.6 0.0
23/03:30am 11.7 5.7 3.5 57 3.6 WNW 24 39 13 21 999.8 999.9 0.0
23/03:00am 12.1 6.4 3.1 54 4.0 WNW 22 33 12 18 999.7 999.8 0.0
23/02:30am 11.8 8.3 3.6 57 3.6 NNW 11 17 6 9 1000.1 1000.2 0.0
23/02:00am 12.4 7.2 2.3 50 4.4 N 19 32 10 17 1000.1 1000.2 0.0
23/01:30am 11.5 8.6 4.7 63 3.1 NNE 9 15 5 8 1000.4 1000.5 0.0
23/01:00am 12.0 6.5 4.0 58 3.6 N 22 32 12 17 1000.6 1000.7 0.0
23/12:30am 12.0 8.3 4.7 61 3.3 NNW 13 20 7 11 1000.5 1000.6 0.0
23/12:00am 11.9 8.9 5.8 66 2.9 NW 11 19 6 10 1001.0 1001.1 0.0
 
Date/Time
EST
Temp
°C
App
Temp
°C
Dew
Point
°C
Rel
Hum
%
Delta-T
°C
Wind Press
QNH
hPa
Press
MSL
hPa
Rain since
9am
mm
Dir  Spd
km/h
Gust
km/h
Spd
kts
Gust
kts
22/11:30pm 11.6 7.2 6.5 71 2.4 W 19 28 10 15 1001.4 1001.5 0.0
22/11:01pm 13.8 7.9 5.7 58 3.8 NW 26 52 14 28 1000.4 1000.5 0.0
22/11:00pm 14.3 8.7 5.4 55 4.2 NW 24 52 13 28 1000.3 1000.4 0.0
22/10:56pm 14.1 9.8 5.2 55 4.2 N 17 52 9 28 1000.0 1000.1 0.0
22/10:30pm 14.4 10.1 5.2 54 4.3 NNE 17 24 9 13 999.7 999.8 0.0
22/10:00pm 13.2 7.7 6.1 62 3.4 ENE 24 32 13 17 999.3 999.4 0.0
22/09:30pm 12.8 7.0 6.4 65 3.0 ENE 26 37 14 20 999.5 999.6 0.0
22/09:11pm 12.6 5.8 6.9 68 2.7 ENE 32 50 17 27 999.4 999.5 0.0
22/09:00pm 12.6 5.5 6.6 67 2.9 ENE 33 41 18 22 999.6 999.7 0.0
22/08:30pm 12.4 5.5 7.1 70 2.6 ENE 33 43 18 23 999.7 999.8 0.0
22/08:00pm 12.7 6.2 6.5 66 3.0 NE 30 35 16 19 1000.0 1000.1 0.0
22/07:30pm 13.2 6.1 6.3 63 3.3 NNE 33 41 18 22 1000.0 1000.1 0.0
22/07:00pm 13.3 5.4 6.2 62 3.4 NNE 37 54 20 29 1000.0 1000.1 0.0
22/06:30pm 13.4 4.3 6.0 61 3.5 NNE 43 52 23 28 999.8 999.9 0.0
22/06:00pm 13.1 4.2 6.7 65 3.1 NNE 43 52 23 28 999.6 999.7 0.0
22/05:30pm 13.9 4.7 5.3 56 4.0 N 43 50 23 27 1000.0 1000.1 0.0
22/05:00pm 14.4 4.5 4.7 52 4.5 N 46 65 25 35 1000.1 1000.2 0.0
22/04:41pm 14.7 4.3 4.1 49 4.9 N 48 67 26 36 1000.2 1000.3 0.0
22/04:30pm 14.6 3.6 5.1 53 4.5 N 52 67 28 36 1000.1 1000.2 0.0
22/04:00pm 14.8 4.5 4.5 50 4.8 N 48 65 26 35 1000.1 1000.2 0.0
22/03:30pm 14.5 5.6 5.3 54 4.3 N 41 61 22 33 1000.3 1000.4 0.0
22/03:20pm 14.7 6.3 5.5 54 4.4 N 39 57 21 31 1000.5 1000.6 0.0
22/03:00pm 14.9 7.2 5.4 53 4.5 N 35 48 19 26 1000.7 1000.8 0.0
22/02:30pm 15.0 9.2 6.3 56 4.2 N 26 33 14 18 1000.9 1001.0 0.0
22/02:00pm 15.5 8.4 5.4 51 4.8 N 32 41 17 22 1001.1 1001.2 0.0
22/01:30pm 15.6 10.9 6.1 53 4.6 N 20 28 11 15 1001.4 1001.5 0.0
22/01:00pm 16.8 13.0 5.7 48 5.4 NW 15 24 8 13 1002.1 1002.1 0.0
22/12:30pm 16.0 13.5 6.7 54 4.6 NNE 9 15 5 8 1002.7 1002.7 0.0
22/12:00pm 14.2 10.6 8.4 68 2.9 NE 17 20 9 11 1003.4 1003.4 0.0
22/11:30am 14.1 10.9 8.5 69 2.8 NE 15 20 8 11 1004.1 1004.1 0.0
22/11:00am 13.5 9.9 8.4 71 2.6 NE 17 24 9 13 1004.6 1004.6 0.0
22/10:30am 12.9 8.6 8.0 72 2.4 NNE 20 24 11 13 1004.9 1004.9 0.0
22/10:00am 12.6 8.1 7.1 69 2.7 NNE 20 26 11 14 1005.0 1005.0 0.0
22/09:30am 11.5 6.5 6.4 71 2.4 N 22 26 12 14 1005.2 1005.2 0.0
22/09:00am 11.2 4.9 5.5 68 2.6 N 28 33 15 18 1005.2 1005.2 0.0
22/08:30am 11.0 5.0 5.5 69 2.5 N 26 33 14 18 1005.1 1005.1 0.0
22/08:00am 11.1 7.3 5.6 69 2.5 N 15 20 8 11 1005.3 1005.3 0.0
22/07:30am 12.1 7.7 4.8 61 3.3 N 17 24 9 13 1005.4 1005.4 0.0
22/07:00am 10.6 5.8 5.8 72 2.2 NNE 20 28 11 15 1005.2 1005.2 0.0
22/06:30am 11.6 6.1 6.1 69 2.6 N 24 32 13 17 1005.0 1005.0 0.0
22/06:00am 10.4 4.9 6.0 74 2.0 N 24 35 13 19 1005.3 1005.3 0.0
22/05:30am 10.6 4.3 5.6 71 2.3 NNE 28 37 15 20 1005.4 1005.4 0.0
22/05:00am 10.6 5.0 5.6 71 2.3 NNE 24 35 13 19 1005.4 1005.4 0.0
22/04:30am 11.0 3.5 4.7 65 2.8 NNE 33 46 18 25 1005.7 1005.7 0.0
22/04:00am 10.7 3.2 4.6 66 2.8 N 33 41 18 22 1005.5 1005.5 0.0
22/03:30am 10.8 3.9 4.7 66 2.8 N 30 41 16 22 1005.5 1005.5 0.0
22/03:00am 10.9 4.1 5.2 68 2.6 N 30 35 16 19 1005.7 1005.7 0.0
22/02:30am 10.9 4.8 4.6 65 2.8 N 26 35 14 19 1006.0 1006.0 0.0
22/02:00am 10.5 5.1 4.6 67 2.7 NNW 22 28 12 15 1006.2 1006.2 0.0
22/01:30am 10.4 5.7 5.2 70 2.4 N 19 24 10 13 1006.4 1006.4 0.0
22/01:00am 10.4 6.3 4.5 67 2.6 N 15 20 8 11 1006.3 1006.3 0.0
22/12:30am 9.9 5.1 4.9 71 2.2 NNE 19 24 10 13 1006.6 1006.6 0.0
22/12:00am 10.1 5.2 5.3 72 2.2 N 20 26 11 14 1006.8 1006.8 0.0
 
Date/Time
EST
Temp
°C
App
Temp
°C
Dew
Point
°C
Rel
Hum
%
Delta-T
°C
Wind Press
QNH
hPa
Press
MSL
hPa
Rain since
9am
mm
Dir  Spd
km/h
Gust
km/h
Spd
kts
Gust
kts
21/11:30pm 10.0 6.0 5.0 71 2.3 N 15 20 8 11 1006.7 1006.7 0.0
21/11:00pm 9.9 5.5 4.9 71 2.3 N 17 22 9 12 1006.8 1006.8 0.0
21/10:30pm 9.9 5.8 4.3 68 2.5 NNW 15 20 8 11 1007.0 1007.0 0.0
21/10:00pm 9.7 6.4 4.3 69 2.4 N 11 19 6 10 1006.9 1006.9 0.0
21/09:30pm 9.7 6.3 3.9 67 2.5 NNW 11 15 6 8 1006.8 1006.8 0.0
21/09:00pm 10.0 6.2 4.0 66 2.7 NNW 13 15 7 8 1006.7 1006.7 0.0
21/08:30pm 10.4 5.9 4.3 66 2.7 NNW 17 19 9 10 1006.4 1006.4 0.0
21/08:00pm 10.9 6.5 2.7 57 3.6 NNW 15 26 8 14 1006.0 1006.0 0.0
21/07:30pm 11.1 6.0 2.9 57 3.6 NW 19 32 10 17 1005.8 1005.8 0.0
21/07:00pm 11.0 5.6 2.3 55 3.7 WNW 20 35 11 19 1005.4 1005.4 0.0
21/06:30pm 10.8 5.5 2.1 55 3.7 NW 19 28 10 15 1004.8 1004.8 0.0
21/06:00pm 11.0 6.5 2.1 54 3.8 WNW 15 24 8 13 1004.1 1004.1 0.0
21/05:30pm 11.0 5.8 2.6 56 3.6 WNW 19 24 10 13 1003.7 1003.7 0.0
21/05:00pm 10.8 3.9 2.6 57 3.5 W 28 37 15 20 1002.8 1002.8 0.0
21/04:30pm 11.8 6.2 3.3 56 3.7 W 22 46 12 25 1002.6 1002.6 0.0
21/04:29pm 11.9 6.6 3.2 55 3.8 W 20 46 11 25 1002.7 1002.7 0.0
21/04:00pm 12.8 9.5 2.6 50 4.5 WNW 9 32 5 17 1001.3 1001.4 0.0
21/03:30pm 12.6 6.4 4.3 57 3.8 W 26 39 14 21 1000.7 1000.8 0.0
21/03:00pm 13.5 7.1 3.0 49 4.7 WNW 26 48 14 26 1000.3 1000.4 0.0
21/02:57pm 13.6 7.2 3.1 49 4.7 WNW 26 48 14 26 1000.4 1000.5 0.0
21/02:30pm 13.6 9.5 2.5 47 4.9 NW 13 33 7 18 1000.1 1000.2 0.0
21/02:00pm 13.5 7.6 4.1 53 4.3 W 24 35 13 19 1000.0 1000.1 0.0
21/01:53pm 14.0 6.8 4.9 54 4.2 W 32 52 17 28 999.9 1000.0 0.0
21/01:30pm 14.1 7.4 3.6 49 4.8 W 28 46 15 25 999.3 999.4 0.0
21/01:07pm 14.2 6.9 4.5 52 4.5 W 32 52 17 28 999.0 999.1 0.0
21/01:00pm 14.5 8.2 3.6 48 5.0 WNW 26 43 14 23 998.8 998.9 0.0
21/12:30pm 15.3 11.3 4.7 49 5.0 W 15 28 8 15 998.5 998.6 0.0
21/12:00pm 14.8 10.1 5.3 53 4.5 WNW 19 35 10 19 998.7 998.8 0.0
21/11:30am 13.0 8.9 6.4 64 3.1 N 17 26 9 14 998.8 998.9 0.0
21/11:00am 12.5 6.4 6.8 68 2.7 NNE 28 39 15 21 998.6 998.7 0.0
21/10:30am 12.8 5.9 6.6 66 3.0 NNE 32 39 17 21 999.2 999.3 0.0
21/10:00am 12.7 7.3 6.5 66 3.0 N 24 39 13 21 999.6 999.7 0.0
21/09:30am 12.1 8.5 6.8 70 2.5 NNE 15 19 8 10 999.8 999.9 0.0
21/09:00am 11.4 6.4 6.3 71 2.4 NNE 22 26 12 14 999.4 999.5 0.0
21/08:30am 11.6 4.7 6.3 70 2.5 NNE 32 37 17 20 999.6 999.7 0.0
21/08:00am 11.4 3.1 6.3 71 2.4 NNE 39 52 21 28 999.5 999.6 0.0
21/07:30am 11.1 4.2 6.5 73 2.2 NE 32 44 17 24 999.7 999.8 0.0
21/07:29am 11.1 4.6 6.5 73 2.2 NE 30 43 16 23 999.8 999.9 0.0
21/07:00am 11.3 7.5 5.6 68 2.6 NE 15 20 8 11 1001.4 1001.5 0.0
21/06:30am 11.5 6.0 5.8 68 2.6 NNE 24 39 13 21 1001.9 1002.0 0.0
21/06:00am 11.2 6.1 6.1 71 2.4 NNE 22 33 12 18 1002.5 1002.5 0.0
21/05:30am 10.9 6.8 6.3 73 2.2 NNE 17 22 9 12 1003.2 1003.2 0.0
21/05:00am 11.1 6.1 6.6 74 2.1 NNE 22 28 12 15 1003.6 1003.6 0.0
21/04:30am 11.2 5.8 6.5 73 2.2 NNE 24 32 13 17 1003.9 1003.9 0.0
21/04:00am 11.4 6.1 6.7 73 2.2 NNE 24 33 13 18 1004.7 1004.7 0.0
21/03:30am 11.1 8.6 6.5 73 2.2 NE 9 15 5 8 1005.4 1005.4 0.0
21/03:00am 10.9 8.0 6.3 73 2.2 NE 11 15 6 8 1005.9 1005.9 0.0
21/02:30am 11.0 8.1 6.4 73 2.2 NE 11 17 6 9 1006.5 1006.5 0.0
21/02:00am 11.1 7.5 6.6 74 2.1 NNE 15 19 8 10 1006.9 1006.9 0.0
21/01:30am 11.7 6.3 6.4 70 2.5 N 24 30 13 16 1007.3 1007.3 0.0
21/01:00am 12.8 8.0 5.7 62 3.3 N 20 35 11 19 1006.8 1006.8 0.0
21/12:30am 11.1 6.5 6.3 72 2.2 N 20 28 11 15 1007.5 1007.5 0.0
21/12:00am 11.4 5.6 6.3 71 2.4 NNE 26 33 14 18 1008.0 1008.0 0.0

Latest Capital City Observations: Canberra | Sydney | Melbourne | Brisbane | Adelaide | Perth | Hobart | Darwin

Other formats

Comma delimited format used in spreadsheet applications
http://www.bom.gov.au/fwo/IDT60901/IDT60901.94988.axf

JavaScript Object Notation format (JSON) in row-major order
http://www.bom.gov.au/fwo/IDT60901/IDT60901.94988.json

Data quality

Most of these data are generated automatically and are frequently updated. Quality checks on data are not normally performed. It is possible for incorrect values to appear. Refer to information at About Latest Weather Observations and please check the disclaimer before using these data.